createdAt,value
2023-02-04T00:00:13.653Z,10.72
2023-02-04T00:02:40.704Z,10.73
2023-02-04T00:05:07.785Z,10.72
2023-02-04T00:07:34.370Z,10.70
2023-02-04T00:10:00.940Z,10.70
2023-02-04T00:12:27.747Z,10.69
2023-02-04T00:14:54.374Z,10.68
2023-02-04T00:17:21.001Z,10.67
2023-02-04T00:19:47.772Z,10.70
2023-02-04T00:22:14.585Z,10.66
2023-02-04T00:24:43.134Z,10.60
2023-02-04T00:27:09.842Z,10.55
2023-02-04T00:29:36.527Z,10.54
2023-02-04T00:32:03.294Z,10.53
2023-02-04T00:34:30.005Z,10.52
2023-02-04T00:36:56.583Z,10.48
2023-02-04T00:39:23.658Z,10.47
2023-02-04T00:41:50.386Z,10.43
2023-02-04T00:44:16.974Z,10.40
2023-02-04T00:46:43.657Z,10.37
2023-02-04T00:49:13.429Z,10.31
2023-02-04T00:51:40.278Z,10.23
2023-02-04T00:54:07.073Z,10.18
2023-02-04T00:56:34.167Z,10.16
2023-02-04T00:59:00.852Z,10.15
2023-02-04T01:01:27.432Z,10.13
2023-02-04T01:03:54.139Z,10.15
2023-02-04T01:06:20.709Z,10.21
2023-02-04T01:08:47.342Z,10.25
2023-02-04T01:11:14.148Z,10.27
2023-02-04T01:13:40.708Z,10.27
2023-02-04T01:16:07.561Z,10.27
2023-02-04T01:18:34.272Z,10.27
2023-02-04T01:21:03.616Z,10.25
2023-02-04T01:23:30.272Z,10.22
2023-02-04T01:25:57.106Z,10.21
2023-02-04T01:28:23.738Z,10.17
2023-02-04T01:30:50.453Z,10.12
2023-02-04T01:33:17.702Z,10.07
2023-02-04T01:35:44.345Z,10.00
2023-02-04T01:38:11.161Z,9.96
2023-02-04T01:40:37.813Z,9.95
2023-02-04T01:43:04.508Z,9.96
2023-02-04T01:45:33.749Z,9.96
2023-02-04T01:48:00.598Z,10.02
2023-02-04T01:50:27.221Z,10.00
2023-02-04T01:52:53.835Z,9.98
2023-02-04T01:55:21.110Z,9.94
2023-02-04T01:57:47.737Z,9.84
2023-02-04T02:00:18.230Z,9.74
2023-02-04T02:02:48.832Z,9.62
2023-02-04T02:05:16.981Z,9.55
2023-02-04T02:07:43.600Z,9.48
2023-02-04T02:10:10.967Z,9.43
2023-02-04T02:12:37.767Z,9.44
2023-02-04T02:15:04.514Z,9.46
2023-02-04T02:17:31.214Z,9.52
2023-02-04T02:19:57.873Z,9.58
2023-02-04T02:22:28.883Z,9.58
2023-02-04T02:24:55.475Z,9.58
2023-02-04T02:27:22.060Z,9.57
2023-02-04T02:29:48.838Z,9.59
2023-02-04T02:32:15.756Z,9.63
2023-02-04T02:34:42.338Z,9.69
2023-02-04T02:37:13.020Z,9.65
2023-02-04T02:39:39.929Z,9.62
2023-02-04T02:42:06.558Z,9.60
2023-02-04T02:44:33.245Z,9.59
2023-02-04T02:46:59.849Z,9.57
2023-02-04T02:49:26.469Z,9.55
2023-02-04T02:51:53.370Z,9.51
2023-02-04T02:54:24.381Z,9.49
2023-02-04T02:56:51.215Z,9.53
2023-02-04T02:59:17.921Z,9.57
2023-02-04T03:01:44.889Z,9.59
2023-02-04T03:04:11.486Z,9.55
2023-02-04T03:06:38.328Z,9.48
2023-02-04T03:09:04.935Z,9.42
2023-02-04T03:11:32.803Z,9.36
2023-02-04T03:14:01.271Z,9.32
2023-02-04T03:16:28.604Z,9.21
2023-02-04T03:18:55.236Z,9.12
2023-02-04T03:21:22.051Z,9.13
2023-02-04T03:23:48.662Z,9.21
2023-02-04T03:26:15.198Z,9.34
2023-02-04T03:28:42.206Z,9.44
2023-02-04T03:31:09.059Z,9.52
2023-02-04T03:33:36.165Z,9.57
2023-02-04T03:36:02.908Z,9.60
2023-02-04T03:38:29.590Z,9.62
2023-02-04T03:40:56.247Z,9.63
2023-02-04T03:43:23.055Z,9.61
2023-02-04T03:45:49.679Z,9.62
2023-02-04T03:48:16.221Z,9.61
2023-02-04T03:50:42.963Z,9.62
2023-02-04T03:53:09.771Z,9.63
2023-02-04T03:55:36.422Z,9.63
2023-02-04T03:58:03.520Z,9.64
2023-02-04T04:00:30.519Z,9.64
2023-02-04T04:02:57.723Z,9.63
2023-02-04T04:05:24.627Z,9.62
2023-02-04T04:07:51.313Z,9.61
2023-02-04T04:10:17.908Z,9.59
2023-02-04T04:12:44.645Z,9.58
2023-02-04T04:15:11.289Z,9.54
2023-02-04T04:17:37.834Z,9.45
2023-02-04T04:20:04.928Z,9.35
2023-02-04T04:22:31.555Z,9.20
2023-02-04T04:24:58.123Z,9.13
2023-02-04T04:27:24.909Z,9.12
2023-02-04T04:29:51.592Z,9.11
2023-02-04T04:32:18.235Z,9.13
2023-02-04T04:34:45.006Z,9.16
2023-02-04T04:37:11.623Z,9.17
2023-02-04T04:39:38.269Z,9.19
2023-02-04T04:42:05.048Z,9.23
2023-02-04T04:44:31.650Z,9.24
2023-02-04T04:46:58.324Z,9.27
2023-02-04T04:49:24.999Z,9.28
2023-02-04T04:51:51.542Z,9.27
2023-02-04T04:54:18.299Z,9.25
2023-02-04T04:56:45.026Z,9.24
2023-02-04T04:59:11.582Z,9.25
2023-02-04T05:01:38.144Z,9.29
2023-02-04T05:04:04.845Z,9.32
2023-02-04T05:06:31.718Z,9.36
2023-02-04T05:08:58.342Z,9.39
2023-02-04T05:11:25.270Z,9.45
2023-02-04T05:13:51.911Z,9.51
2023-02-04T05:16:18.627Z,9.57
2023-02-04T05:18:45.408Z,9.60
2023-02-04T05:21:12.033Z,9.65
2023-02-04T05:23:38.681Z,9.68
2023-02-04T05:26:05.491Z,9.68
2023-02-04T05:28:32.136Z,9.66
2023-02-04T05:30:58.800Z,9.60
2023-02-04T05:33:25.503Z,9.56
2023-02-04T05:35:52.120Z,9.49
2023-02-04T05:38:18.691Z,9.44
2023-02-04T05:40:45.418Z,9.44
2023-02-04T05:43:12.318Z,9.43
2023-02-04T05:45:39.069Z,9.41
2023-02-04T05:48:05.853Z,9.43
2023-02-04T05:50:32.715Z,9.44
2023-02-04T05:52:59.470Z,9.42
2023-02-04T05:55:26.218Z,9.42
2023-02-04T05:57:52.829Z,9.44
2023-02-04T06:00:19.639Z,9.42
2023-02-04T06:02:46.381Z,9.37
2023-02-04T06:05:12.941Z,9.34
2023-02-04T06:07:39.574Z,9.29
2023-02-04T06:10:06.349Z,9.25
2023-02-04T06:12:32.972Z,9.24
2023-02-04T06:14:59.516Z,9.24
2023-02-04T06:17:26.169Z,9.25
2023-02-04T06:19:52.797Z,9.24
2023-02-04T06:22:19.483Z,9.25
2023-02-04T06:24:47.472Z,9.24
2023-02-04T06:27:14.211Z,9.23
2023-02-04T06:29:40.789Z,9.21
2023-02-04T06:32:07.480Z,9.18
2023-02-04T06:34:34.138Z,9.16
2023-02-04T06:37:00.887Z,9.12
2023-02-04T06:39:27.747Z,9.11
2023-02-04T06:41:54.308Z,9.09
2023-02-04T06:44:20.861Z,9.10
2023-02-04T06:46:47.506Z,9.12
2023-02-04T06:49:14.162Z,9.15
2023-02-04T06:51:40.730Z,9.19
2023-02-04T06:54:07.420Z,9.22
2023-02-04T06:56:34.074Z,9.21
2023-02-04T06:59:03.023Z,9.20
2023-02-04T07:01:30.067Z,9.21
2023-02-04T07:03:56.764Z,9.19
2023-02-04T07:06:23.308Z,9.16
2023-02-04T07:08:50.505Z,9.13
2023-02-04T07:11:17.071Z,9.10
2023-02-04T07:13:43.689Z,9.06
2023-02-04T07:16:10.434Z,9.03
2023-02-04T07:18:37.064Z,8.97
2023-02-04T07:21:03.769Z,8.91
2023-02-04T07:23:30.550Z,8.82
2023-02-04T07:25:59.454Z,8.76
2023-02-04T07:28:26.366Z,8.69
2023-02-04T07:30:53.307Z,8.66
2023-02-04T07:33:20.012Z,8.71
2023-02-04T07:35:46.602Z,8.72
2023-02-04T07:38:13.330Z,8.74
2023-02-04T07:40:39.881Z,8.74
2023-02-04T07:43:06.472Z,8.75
2023-02-04T07:45:33.239Z,8.78
2023-02-04T07:47:59.769Z,8.81
2023-02-04T07:50:26.301Z,8.84
2023-02-04T07:52:52.968Z,8.87
2023-02-04T07:55:19.561Z,8.93
2023-02-04T07:57:46.191Z,8.97
2023-02-04T08:00:14.490Z,8.99
2023-02-04T08:02:42.040Z,9.03
2023-02-04T08:05:09.076Z,9.05
2023-02-04T08:07:35.827Z,9.16
2023-02-04T08:10:03.141Z,9.35
2023-02-04T08:12:30.438Z,9.59
2023-02-04T08:14:57.066Z,9.82
2023-02-04T08:17:23.744Z,10.07
2023-02-04T08:19:50.371Z,10.34
2023-02-04T08:22:17.604Z,10.59
2023-02-04T08:24:44.239Z,10.85
2023-02-04T08:27:15.557Z,11.09
2023-02-04T08:29:42.752Z,11.37
2023-02-04T08:32:10.303Z,11.65
2023-02-04T08:34:37.171Z,11.94
2023-02-04T08:37:03.956Z,12.21
2023-02-04T08:39:30.779Z,12.49
2023-02-04T08:41:57.711Z,12.83
2023-02-04T08:44:24.718Z,13.14
2023-02-04T08:46:51.335Z,13.46
2023-02-04T08:49:17.944Z,13.78
2023-02-04T08:51:44.653Z,14.09
2023-02-04T08:54:11.206Z,14.39
2023-02-04T08:56:38.096Z,14.66
2023-02-04T08:59:04.837Z,14.96
2023-02-04T09:01:31.426Z,15.23
2023-02-04T09:03:57.965Z,15.53
2023-02-04T09:06:24.727Z,15.82
2023-02-04T09:08:51.321Z,16.12
2023-02-04T09:11:18.048Z,16.43
2023-02-04T09:13:44.816Z,16.75
2023-02-04T09:16:11.362Z,17.06
2023-02-04T09:18:38.119Z,17.34
2023-02-04T09:21:05.053Z,17.62
2023-02-04T09:23:31.844Z,17.93
2023-02-04T09:25:58.546Z,18.19
2023-02-04T09:28:25.237Z,18.46
2023-02-04T09:30:53.178Z,18.69
2023-02-04T09:33:19.800Z,18.90
2023-02-04T09:35:46.527Z,19.16
2023-02-04T09:38:13.100Z,19.47
2023-02-04T09:40:43.461Z,19.76
2023-02-04T09:43:12.538Z,20.08
2023-02-04T09:45:39.142Z,20.43
2023-02-04T09:48:05.967Z,20.75
2023-02-04T09:50:33.164Z,21.08
2023-02-04T09:53:06.780Z,21.36
2023-02-04T09:58:00.800Z,21.88
2023-02-04T10:00:28.333Z,22.15
2023-02-04T10:02:55.702Z,22.40
2023-02-04T10:05:25.297Z,22.58
2023-02-04T10:07:52.144Z,22.67
2023-02-04T10:10:22.504Z,22.77
2023-02-04T10:12:49.746Z,22.86
2023-02-04T10:15:16.683Z,22.99
2023-02-04T10:17:45.661Z,23.02
2023-02-04T10:20:13.772Z,23.07
2023-02-04T10:22:40.362Z,23.19
2023-02-04T10:25:14.499Z,23.36
2023-02-04T10:27:48.246Z,23.55
2023-02-04T10:30:25.265Z,23.75
2023-02-04T10:32:52.079Z,23.94
2023-02-04T10:35:19.046Z,24.06
2023-02-04T10:37:45.889Z,24.06
2023-02-04T10:40:27.894Z,24.05
2023-02-04T10:42:55.626Z,24.20
2023-02-04T10:45:23.071Z,24.37
2023-02-04T10:47:53.080Z,24.56
2023-02-04T10:50:20.334Z,24.76
2023-02-04T10:52:47.701Z,24.96
2023-02-04T10:55:14.972Z,25.13
2023-02-04T10:57:41.773Z,25.29
2023-02-04T11:00:15.449Z,25.46
2023-02-04T11:02:43.102Z,25.63
2023-02-04T11:05:14.898Z,25.78
2023-02-04T11:07:41.564Z,25.93
2023-02-04T11:10:11.625Z,26.06
2023-02-04T11:13:04.676Z,26.24
2023-02-04T11:15:37.582Z,26.43
2023-02-04T11:18:04.889Z,26.61
2023-02-04T11:20:32.804Z,26.78
2023-02-04T11:23:14.018Z,26.97
2023-02-04T11:25:44.075Z,27.11
2023-02-04T11:28:24.399Z,27.24
2023-02-04T11:31:01.970Z,27.36
2023-02-04T11:33:37.310Z,27.42
2023-02-04T11:36:04.827Z,27.51
2023-02-04T11:38:31.578Z,27.67
2023-02-04T11:40:58.266Z,27.83
2023-02-04T11:43:24.966Z,27.93
2023-02-04T11:46:00.564Z,27.98
2023-02-04T11:48:27.364Z,28.02
2023-02-04T11:50:57.617Z,28.06
2023-02-04T11:53:25.012Z,28.13
2023-02-04T11:55:51.615Z,28.22
2023-02-04T11:58:18.605Z,28.31
2023-02-04T12:00:45.389Z,28.48
2023-02-04T12:03:31.331Z,28.76
2023-02-04T12:05:58.669Z,29.05
2023-02-04T12:08:26.374Z,29.26
2023-02-04T12:10:59.517Z,29.43
2023-02-04T12:13:26.432Z,29.67
2023-02-04T12:16:03.091Z,29.83
2023-02-04T12:18:29.916Z,30.02
2023-02-04T12:20:56.723Z,30.23
2023-02-04T12:23:23.733Z,30.42
2023-02-04T12:25:50.466Z,30.63
2023-02-04T12:28:17.281Z,30.74
2023-02-04T12:30:43.982Z,30.95
2023-02-04T12:33:10.658Z,31.13
2023-02-04T12:35:37.612Z,31.27
2023-02-04T12:38:04.239Z,31.38
2023-02-04T12:40:31.038Z,31.55
2023-02-04T12:42:57.744Z,31.73
2023-02-04T12:45:24.348Z,31.94
2023-02-04T12:47:50.978Z,32.06
2023-02-04T12:50:23.679Z,32.20
2023-02-04T12:52:51.011Z,32.28
2023-02-04T12:55:17.705Z,32.31
2023-02-04T12:57:44.449Z,32.30
2023-02-04T13:00:13.172Z,32.44
2023-02-04T13:02:40.325Z,32.61
2023-02-04T13:05:07.332Z,32.62
2023-02-04T13:07:34.087Z,32.68
2023-02-04T13:10:00.937Z,32.83
2023-02-04T13:12:27.582Z,33.01
2023-02-04T13:14:54.145Z,33.21
2023-02-04T13:17:20.801Z,33.39
2023-02-04T13:19:47.443Z,33.46
2023-02-04T13:22:14.032Z,33.55
2023-02-04T13:24:40.672Z,33.67
2023-02-04T13:27:07.370Z,33.81
2023-02-04T13:29:34.030Z,33.96
2023-02-04T13:32:00.676Z,34.10
2023-02-04T13:34:27.489Z,34.10
2023-02-04T13:36:54.155Z,33.69
2023-02-04T13:39:20.746Z,32.61
2023-02-04T13:41:47.593Z,31.28
2023-02-04T13:44:14.168Z,30.04
2023-02-04T13:46:40.721Z,28.80
2023-02-04T13:49:07.573Z,27.72
2023-02-04T13:51:34.195Z,26.76
2023-02-04T13:54:00.803Z,25.91
2023-02-04T13:56:28.468Z,25.18
2023-02-04T13:58:55.010Z,24.49
2023-02-04T14:01:21.677Z,23.86
2023-02-04T14:03:48.409Z,23.29
2023-02-04T14:06:15.288Z,22.80
2023-02-04T14:08:42.675Z,22.37
2023-02-04T14:11:09.960Z,21.99
2023-02-04T14:13:36.578Z,21.65
2023-02-04T14:16:03.185Z,21.33
2023-02-04T14:18:30.260Z,21.04
2023-02-04T14:20:56.930Z,20.76
2023-02-04T14:23:24.178Z,20.53
2023-02-04T14:25:50.862Z,20.33
2023-02-04T14:28:17.429Z,20.13
2023-02-04T14:30:44.061Z,19.97
2023-02-04T14:33:10.848Z,19.81
2023-02-04T14:35:37.829Z,19.68
2023-02-04T14:38:04.371Z,19.55
2023-02-04T14:40:31.378Z,19.40
2023-02-04T14:42:58.253Z,19.28
2023-02-04T14:45:24.840Z,19.17
2023-02-04T14:47:53.202Z,19.07
2023-02-04T14:50:20.026Z,18.96
2023-02-04T14:52:46.640Z,18.86
2023-02-04T14:55:14.655Z,18.78
2023-02-04T14:57:41.343Z,18.69
2023-02-04T15:00:08.422Z,18.61
2023-02-04T15:02:35.163Z,18.53
2023-02-04T15:05:02.047Z,18.45
2023-02-04T15:07:28.692Z,18.38
2023-02-04T15:09:55.471Z,18.31
2023-02-04T15:12:22.699Z,18.24
2023-02-04T15:14:49.260Z,18.19
2023-02-04T15:17:15.953Z,18.12
2023-02-04T15:19:42.556Z,18.06
2023-02-04T15:22:09.214Z,17.98
2023-02-04T15:24:35.906Z,17.93
2023-02-04T15:27:02.681Z,17.87
2023-02-04T15:29:29.383Z,17.81
2023-02-04T15:31:56.407Z,17.75
2023-02-04T15:34:22.971Z,17.70
2023-02-04T15:36:49.560Z,17.65
2023-02-04T15:39:16.257Z,17.60
2023-02-04T15:41:42.841Z,17.54
2023-02-04T15:44:09.473Z,17.50
2023-02-04T15:46:36.769Z,17.45
2023-02-04T15:49:03.660Z,17.42
2023-02-04T15:51:30.211Z,17.37
2023-02-04T15:53:56.925Z,17.33
2023-02-04T15:56:23.519Z,17.29
2023-02-04T15:58:50.118Z,17.24
2023-02-04T16:01:16.930Z,17.21
2023-02-04T16:03:47.408Z,17.17
2023-02-04T16:06:14.259Z,17.15
2023-02-04T16:08:42.883Z,17.12
2023-02-04T16:11:10.970Z,17.09
2023-02-04T16:13:39.106Z,17.02
2023-02-04T16:16:06.532Z,16.99
2023-02-04T16:18:33.204Z,16.96
2023-02-04T16:20:59.792Z,16.93
2023-02-04T16:23:27.912Z,16.89
2023-02-04T16:25:54.472Z,16.86
2023-02-04T16:28:21.234Z,16.81
2023-02-04T16:30:47.988Z,16.77
2023-02-04T16:33:16.973Z,16.73
2023-02-04T16:35:57.502Z,16.68
2023-02-04T16:38:24.234Z,16.63
2023-02-04T16:40:50.897Z,16.59
2023-02-04T16:43:17.649Z,16.53
2023-02-04T16:45:44.195Z,16.49
2023-02-04T16:48:10.911Z,16.45
2023-02-04T16:50:40.163Z,16.39
2023-02-04T16:53:06.815Z,16.35
2023-02-04T16:55:33.742Z,16.30
2023-02-04T16:58:00.672Z,16.25
2023-02-04T17:00:30.191Z,16.21
2023-02-04T17:02:57.061Z,16.18
2023-02-04T17:05:23.805Z,16.14
2023-02-04T17:07:52.769Z,16.09
2023-02-04T17:10:39.375Z,16.05
2023-02-04T17:13:05.979Z,15.99
2023-02-04T17:15:32.878Z,15.95
2023-02-04T17:17:59.715Z,15.90
2023-02-04T17:20:26.346Z,15.84
2023-02-04T17:22:52.916Z,15.77
2023-02-04T17:25:19.543Z,15.72
2023-02-04T17:27:46.126Z,15.69
2023-02-04T17:30:15.497Z,15.63
2023-02-04T17:35:22.527Z,15.53
2023-02-04T17:37:49.342Z,15.49
2023-02-04T17:40:15.994Z,15.41
2023-02-04T17:42:42.609Z,15.37
2023-02-04T17:45:10.817Z,15.31
2023-02-04T17:47:40.451Z,15.25
2023-02-04T17:50:12.859Z,15.21
2023-02-04T17:52:39.590Z,15.13
2023-02-04T17:55:23.843Z,15.09
2023-02-04T17:57:51.135Z,15.02
2023-02-04T18:00:18.742Z,14.97
2023-02-04T18:02:45.706Z,14.91
2023-02-04T18:05:19.228Z,14.85
2023-02-04T18:08:06.086Z,14.81
2023-02-04T18:10:38.455Z,14.76
2023-02-04T18:13:25.331Z,14.72
2023-02-04T18:15:52.847Z,14.67
2023-02-04T18:18:23.744Z,14.65
2023-02-04T18:21:10.818Z,14.61
2023-02-04T18:23:37.862Z,14.58
2023-02-04T18:26:11.845Z,14.53
2023-02-04T18:28:40.450Z,14.50
2023-02-04T18:31:07.183Z,14.46
2023-02-04T18:33:33.800Z,14.42
2023-02-04T18:36:02.022Z,14.40
2023-02-04T18:38:29.430Z,14.37
2023-02-04T18:40:57.805Z,14.35
2023-02-04T18:43:25.513Z,14.35
2023-02-04T18:45:52.361Z,14.32
2023-02-04T18:48:22.791Z,14.30
2023-02-04T18:50:53.668Z,14.26
2023-02-04T18:53:20.217Z,14.23
2023-02-04T18:55:50.651Z,14.21
2023-02-04T18:58:17.357Z,14.19
2023-02-04T19:00:45.582Z,14.17
2023-02-04T19:03:15.782Z,14.15
2023-02-04T19:05:43.461Z,14.14
2023-02-04T19:08:16.812Z,14.10
2023-02-04T19:10:43.481Z,14.10
2023-02-04T19:13:20.600Z,14.07
2023-02-04T19:15:59.185Z,14.05
2023-02-04T19:18:27.617Z,14.03
2023-02-04T19:20:54.429Z,13.98
2023-02-04T19:23:22.223Z,13.96
2023-02-04T19:25:49.809Z,13.95
2023-02-04T19:28:24.874Z,13.91
2023-02-04T19:30:54.122Z,13.88
2023-02-04T19:33:25.666Z,13.87
2023-02-04T19:35:52.515Z,13.84
2023-02-04T19:38:22.630Z,13.80
2023-02-04T19:40:50.442Z,13.77
2023-02-04T19:43:21.572Z,13.72
2023-02-04T19:45:50.016Z,13.69
2023-02-04T19:48:26.701Z,13.66
2023-02-04T19:50:54.068Z,13.63
2023-02-04T19:53:25.516Z,13.61
2023-02-04T19:55:53.465Z,13.59
2023-02-04T19:58:21.994Z,13.58
2023-02-04T20:00:58.985Z,13.56
2023-02-04T20:03:28.888Z,13.54
2023-02-04T20:05:57.450Z,13.52
2023-02-04T20:08:33.320Z,13.51
2023-02-04T20:11:00.002Z,13.50
2023-02-04T20:13:26.609Z,13.47
2023-02-04T20:15:53.321Z,13.46
2023-02-04T20:18:23.087Z,13.45
2023-02-04T20:20:53.360Z,13.43
2023-02-04T20:23:29.809Z,13.41
2023-02-04T20:25:57.345Z,13.40
2023-02-04T20:28:30.710Z,13.38
2023-02-04T20:31:00.347Z,13.41
2023-02-04T20:33:30.888Z,13.44
2023-02-04T20:36:23.355Z,13.49
2023-02-04T20:38:50.053Z,13.59
2023-02-04T20:41:18.286Z,13.63
2023-02-04T20:43:45.039Z,13.68
2023-02-04T20:46:23.853Z,13.69
2023-02-04T20:48:50.598Z,13.71
2023-02-04T20:51:23.951Z,13.72
2023-02-04T20:53:51.132Z,13.72
2023-02-04T20:56:27.361Z,13.69
2023-02-04T20:58:55.006Z,13.65
2023-02-04T21:01:28.085Z,13.61
2023-02-04T21:03:55.057Z,13.62
2023-02-04T21:06:25.470Z,13.62
2023-02-04T21:08:52.361Z,13.63
2023-02-04T21:11:20.393Z,13.62
2023-02-04T21:13:47.658Z,13.61
2023-02-04T21:16:14.238Z,13.60
2023-02-04T21:18:41.028Z,13.59
2023-02-04T21:21:08.122Z,13.60
2023-02-04T21:23:42.380Z,13.61
2023-02-04T21:26:09.066Z,13.59
2023-02-04T21:28:37.794Z,13.60
2023-02-04T21:31:04.928Z,13.60
2023-02-04T21:33:33.731Z,13.60
2023-02-04T21:36:03.429Z,13.60
2023-02-04T21:38:30.089Z,13.59
2023-02-04T21:40:56.954Z,13.59
2023-02-04T21:43:23.580Z,13.57
2023-02-04T21:45:50.202Z,13.54
2023-02-04T21:48:18.225Z,13.52
2023-02-04T21:50:46.941Z,13.51
2023-02-04T21:53:13.827Z,13.51
2023-02-04T21:55:40.638Z,13.49
2023-02-04T21:58:07.635Z,13.48
2023-02-04T22:00:36.384Z,13.44
2023-02-04T22:03:03.144Z,13.40
2023-02-04T22:05:29.774Z,13.36
2023-02-04T22:07:57.963Z,13.32
2023-02-04T22:10:26.309Z,13.29
2023-02-04T22:12:54.510Z,13.27
2023-02-04T22:15:21.806Z,13.24
2023-02-04T22:17:48.853Z,13.22
2023-02-04T22:20:16.904Z,13.19
2023-02-04T22:22:44.315Z,13.12
2023-02-04T22:25:11.538Z,13.08
2023-02-04T22:27:38.168Z,13.04
2023-02-04T22:30:05.466Z,13.00
2023-02-04T22:32:32.137Z,12.98
2023-02-04T22:34:58.726Z,12.95
2023-02-04T22:37:33.013Z,12.92
2023-02-04T22:39:59.718Z,12.87
2023-02-04T22:42:26.335Z,12.75
2023-02-04T22:44:52.877Z,12.60
2023-02-04T22:47:21.563Z,12.47
2023-02-04T22:49:52.485Z,12.36
2023-02-04T22:52:19.079Z,12.33
2023-02-04T22:54:45.821Z,12.32
2023-02-04T22:57:15.079Z,12.30
2023-02-04T22:59:41.938Z,12.28
2023-02-04T23:02:08.748Z,12.25
2023-02-04T23:04:35.545Z,12.23
2023-02-04T23:07:04.854Z,12.23
2023-02-04T23:09:32.229Z,12.24
2023-02-04T23:11:59.001Z,12.22
2023-02-04T23:14:25.604Z,12.19
2023-02-04T23:16:53.011Z,12.14
2023-02-04T23:19:19.632Z,12.12
2023-02-04T23:21:46.419Z,12.09
2023-02-04T23:24:13.039Z,12.12
2023-02-04T23:26:39.616Z,12.11
2023-02-04T23:29:09.899Z,12.11
2023-02-04T23:31:36.594Z,12.06
2023-02-04T23:34:03.181Z,12.02
2023-02-04T23:36:29.937Z,12.00
2023-02-04T23:38:56.622Z,12.01
2023-02-04T23:41:23.493Z,12.01
2023-02-04T23:43:50.029Z,12.00
2023-02-04T23:46:16.713Z,11.99
2023-02-04T23:48:43.377Z,11.98
2023-02-04T23:51:10.051Z,11.94
2023-02-04T23:53:45.423Z,11.90
2023-02-04T23:56:11.985Z,11.88
2023-02-04T23:58:41.711Z,11.85
